sensor_id;sensor_type;location;lat;lon;timestamp;P1;durP1;ratioP1;P2;durP2;ratioP2
40787;SDS011;26497;52.494;7.546;2023-08-30T00:01:05;83.28;;;78.13;;
40787;SDS011;26497;52.494;7.546;2023-08-30T00:03:33;83.95;;;78.55;;
40787;SDS011;26497;52.494;7.546;2023-08-30T00:06:03;79.95;;;74.72;;
40787;SDS011;26497;52.494;7.546;2023-08-30T00:08:31;79.43;;;74.15;;
40787;SDS011;26497;52.494;7.546;2023-08-30T00:10:58;78.53;;;73.25;;
40787;SDS011;26497;52.494;7.546;2023-08-30T00:13:28;77.60;;;72.60;;
40787;SDS011;26497;52.494;7.546;2023-08-30T00:15:56;74.03;;;69.15;;
40787;SDS011;26497;52.494;7.546;2023-08-30T00:18:23;75.93;;;70.75;;
40787;SDS011;26497;52.494;7.546;2023-08-30T00:20:50;79.97;;;73.22;;
40787;SDS011;26497;52.494;7.546;2023-08-30T00:23:17;82.15;;;76.03;;
40787;SDS011;26497;52.494;7.546;2023-08-30T00:25:44;80.30;;;74.47;;
40787;SDS011;26497;52.494;7.546;2023-08-30T00:28:11;83.78;;;77.55;;
40787;SDS011;26497;52.494;7.546;2023-08-30T00:30:39;83.45;;;77.45;;
40787;SDS011;26497;52.494;7.546;2023-08-30T00:33:06;87.38;;;80.90;;
40787;SDS011;26497;52.494;7.546;2023-08-30T00:35:33;87.15;;;80.70;;
40787;SDS011;26497;52.494;7.546;2023-08-30T00:38:00;84.40;;;78.40;;
40787;SDS011;26497;52.494;7.546;2023-08-30T00:40:28;87.47;;;81.13;;
40787;SDS011;26497;52.494;7.546;2023-08-30T00:42:56;85.38;;;78.80;;
40787;SDS011;26497;52.494;7.546;2023-08-30T00:45:22;82.53;;;76.68;;
40787;SDS011;26497;52.494;7.546;2023-08-30T00:47:50;83.32;;;76.95;;
40787;SDS011;26497;52.494;7.546;2023-08-30T00:50:17;79.70;;;74.05;;
40787;SDS011;26497;52.494;7.546;2023-08-30T00:52:45;82.70;;;76.38;;
40787;SDS011;26497;52.494;7.546;2023-08-30T00:55:12;77.35;;;71.88;;
40787;SDS011;26497;52.494;7.546;2023-08-30T00:57:40;81.35;;;75.10;;
40787;SDS011;26497;52.494;7.546;2023-08-30T01:00:07;83.78;;;77.15;;
40787;SDS011;26497;52.494;7.546;2023-08-30T01:02:37;85.13;;;78.63;;
40787;SDS011;26497;52.494;7.546;2023-08-30T01:05:05;83.82;;;77.10;;
40787;SDS011;26497;52.494;7.546;2023-08-30T01:07:34;87.10;;;80.57;;
40787;SDS011;26497;52.494;7.546;2023-08-30T01:10:01;89.80;;;82.07;;
40787;SDS011;26497;52.494;7.546;2023-08-30T01:12:29;88.97;;;81.38;;
40787;SDS011;26497;52.494;7.546;2023-08-30T01:15:06;87.65;;;80.80;;
40787;SDS011;26497;52.494;7.546;2023-08-30T01:17:38;87.35;;;80.30;;
40787;SDS011;26497;52.494;7.546;2023-08-30T01:20:09;87.93;;;80.78;;
40787;SDS011;26497;52.494;7.546;2023-08-30T01:22:43;88.15;;;80.03;;
40787;SDS011;26497;52.494;7.546;2023-08-30T01:25:24;82.47;;;76.05;;
40787;SDS011;26497;52.494;7.546;2023-08-30T01:28:04;84.95;;;78.00;;
40787;SDS011;26497;52.494;7.546;2023-08-30T01:30:32;84.43;;;77.10;;
40787;SDS011;26497;52.494;7.546;2023-08-30T01:33:03;86.07;;;79.13;;
40787;SDS011;26497;52.494;7.546;2023-08-30T01:35:31;87.55;;;80.05;;
40787;SDS011;26497;52.494;7.546;2023-08-30T01:38:02;87.72;;;80.78;;
40787;SDS011;26497;52.494;7.546;2023-08-30T01:40:32;87.53;;;80.47;;
40787;SDS011;26497;52.494;7.546;2023-08-30T01:43:04;89.80;;;81.72;;
40787;SDS011;26497;52.494;7.546;2023-08-30T01:45:33;92.07;;;84.72;;
40787;SDS011;26497;52.494;7.546;2023-08-30T01:48:02;97.55;;;88.90;;
40787;SDS011;26497;52.494;7.546;2023-08-30T01:50:30;90.70;;;82.53;;
40787;SDS011;26497;52.494;7.546;2023-08-30T01:52:59;88.70;;;81.63;;
40787;SDS011;26497;52.494;7.546;2023-08-30T01:55:28;90.32;;;83.13;;
40787;SDS011;26497;52.494;7.546;2023-08-30T01:57:57;89.60;;;81.80;;
40787;SDS011;26497;52.494;7.546;2023-08-30T02:00:25;92.63;;;84.93;;
40787;SDS011;26497;52.494;7.546;2023-08-30T02:02:52;92.93;;;84.45;;
40787;SDS011;26497;52.494;7.546;2023-08-30T02:05:19;90.55;;;82.43;;
40787;SDS011;26497;52.494;7.546;2023-08-30T02:07:48;94.50;;;86.28;;
40787;SDS011;26497;52.494;7.546;2023-08-30T02:10:23;93.25;;;85.15;;
40787;SDS011;26497;52.494;7.546;2023-08-30T02:12:57;90.82;;;82.88;;
40787;SDS011;26497;52.494;7.546;2023-08-30T02:15:29;91.50;;;83.90;;
40787;SDS011;26497;52.494;7.546;2023-08-30T02:17:59;88.65;;;81.40;;
40787;SDS011;26497;52.494;7.546;2023-08-30T02:20:29;91.47;;;84.05;;
40787;SDS011;26497;52.494;7.546;2023-08-30T02:22:58;92.30;;;84.45;;
40787;SDS011;26497;52.494;7.546;2023-08-30T02:25:25;93.47;;;85.13;;
40787;SDS011;26497;52.494;7.546;2023-08-30T02:27:52;90.70;;;82.72;;
40787;SDS011;26497;52.494;7.546;2023-08-30T02:30:19;90.68;;;83.15;;
40787;SDS011;26497;52.494;7.546;2023-08-30T02:32:47;92.90;;;84.45;;
40787;SDS011;26497;52.494;7.546;2023-08-30T02:35:14;90.82;;;83.00;;
40787;SDS011;26497;52.494;7.546;2023-08-30T02:37:41;90.30;;;82.70;;
40787;SDS011;26497;52.494;7.546;2023-08-30T02:40:08;95.10;;;86.05;;
40787;SDS011;26497;52.494;7.546;2023-08-30T02:42:37;91.70;;;83.82;;
40787;SDS011;26497;52.494;7.546;2023-08-30T02:45:04;98.72;;;89.43;;
40787;SDS011;26497;52.494;7.546;2023-08-30T02:47:32;94.32;;;86.03;;
40787;SDS011;26497;52.494;7.546;2023-08-30T02:50:00;96.03;;;87.05;;
40787;SDS011;26497;52.494;7.546;2023-08-30T02:52:27;93.53;;;85.18;;
40787;SDS011;26497;52.494;7.546;2023-08-30T02:54:54;93.40;;;84.13;;
40787;SDS011;26497;52.494;7.546;2023-08-30T02:57:21;91.38;;;82.43;;
40787;SDS011;26497;52.494;7.546;2023-08-30T02:59:48;98.05;;;87.82;;
40787;SDS011;26497;52.494;7.546;2023-08-30T03:02:17;93.25;;;84.25;;
40787;SDS011;26497;52.494;7.546;2023-08-30T03:04:44;96.70;;;85.70;;
40787;SDS011;26497;52.494;7.546;2023-08-30T03:07:12;96.13;;;86.45;;
40787;SDS011;26497;52.494;7.546;2023-08-30T03:09:39;98.05;;;87.85;;
40787;SDS011;26497;52.494;7.546;2023-08-30T03:12:06;100.90;;;89.30;;
40787;SDS011;26497;52.494;7.546;2023-08-30T03:14:33;94.75;;;83.88;;
40787;SDS011;26497;52.494;7.546;2023-08-30T03:17:00;95.53;;;85.90;;
40787;SDS011;26497;52.494;7.546;2023-08-30T03:19:27;97.68;;;87.45;;
40787;SDS011;26497;52.494;7.546;2023-08-30T03:21:54;102.28;;;87.72;;
40787;SDS011;26497;52.494;7.546;2023-08-30T03:24:22;95.78;;;85.60;;
40787;SDS011;26497;52.494;7.546;2023-08-30T03:26:49;94.90;;;84.80;;
40787;SDS011;26497;52.494;7.546;2023-08-30T03:29:16;97.65;;;87.45;;
40787;SDS011;26497;52.494;7.546;2023-08-30T03:31:43;96.40;;;86.75;;
40787;SDS011;26497;52.494;7.546;2023-08-30T03:34:10;99.88;;;88.18;;
40787;SDS011;26497;52.494;7.546;2023-08-30T03:36:37;131.05;;;96.03;;
40787;SDS011;26497;52.494;7.546;2023-08-30T03:39:05;130.80;;;102.75;;
40787;SDS011;26497;52.494;7.546;2023-08-30T03:41:33;125.30;;;101.40;;
40787;SDS011;26497;52.494;7.546;2023-08-30T03:44:00;137.43;;;105.25;;
40787;SDS011;26497;52.494;7.546;2023-08-30T03:46:27;132.60;;;110.20;;
40787;SDS011;26497;52.494;7.546;2023-08-30T03:48:54;141.48;;;112.70;;
40787;SDS011;26497;52.494;7.546;2023-08-30T03:51:21;131.45;;;112.72;;
40787;SDS011;26497;52.494;7.546;2023-08-30T03:53:48;133.90;;;110.90;;
40787;SDS011;26497;52.494;7.546;2023-08-30T03:56:15;139.90;;;115.00;;
40787;SDS011;26497;52.494;7.546;2023-08-30T03:58:43;131.80;;;109.57;;
40787;SDS011;26497;52.494;7.546;2023-08-30T04:01:11;124.93;;;106.57;;
40787;SDS011;26497;52.494;7.546;2023-08-30T04:03:38;124.47;;;109.60;;
40787;SDS011;26497;52.494;7.546;2023-08-30T04:06:05;124.72;;;105.68;;
40787;SDS011;26497;52.494;7.546;2023-08-30T04:08:32;125.55;;;102.82;;
40787;SDS011;26497;52.494;7.546;2023-08-30T04:10:59;112.55;;;98.15;;
40787;SDS011;26497;52.494;7.546;2023-08-30T04:13:26;123.40;;;96.22;;
40787;SDS011;26497;52.494;7.546;2023-08-30T04:15:55;120.70;;;98.47;;
40787;SDS011;26497;52.494;7.546;2023-08-30T04:18:23;117.35;;;95.78;;
40787;SDS011;26497;52.494;7.546;2023-08-30T04:20:50;110.53;;;91.40;;
40787;SDS011;26497;52.494;7.546;2023-08-30T04:23:17;112.20;;;93.07;;
40787;SDS011;26497;52.494;7.546;2023-08-30T04:25:44;108.93;;;90.75;;
40787;SDS011;26497;52.494;7.546;2023-08-30T04:28:11;114.55;;;93.75;;
40787;SDS011;26497;52.494;7.546;2023-08-30T04:30:38;116.13;;;91.55;;
40787;SDS011;26497;52.494;7.546;2023-08-30T04:33:07;114.82;;;93.70;;
40787;SDS011;26497;52.494;7.546;2023-08-30T04:35:34;111.28;;;91.82;;
40787;SDS011;26497;52.494;7.546;2023-08-30T04:38:01;97.80;;;86.60;;
40787;SDS011;26497;52.494;7.546;2023-08-30T04:40:28;101.20;;;87.03;;
40787;SDS011;26497;52.494;7.546;2023-08-30T04:42:56;121.75;;;89.00;;
40787;SDS011;26497;52.494;7.546;2023-08-30T04:45:23;120.07;;;89.60;;
40787;SDS011;26497;52.494;7.546;2023-08-30T04:47:50;122.68;;;89.22;;
40787;SDS011;26497;52.494;7.546;2023-08-30T04:50:19;116.88;;;93.25;;
40787;SDS011;26497;52.494;7.546;2023-08-30T04:52:46;113.18;;;88.53;;
40787;SDS011;26497;52.494;7.546;2023-08-30T04:55:13;137.98;;;92.13;;
40787;SDS011;26497;52.494;7.546;2023-08-30T04:57:40;147.98;;;100.90;;
40787;SDS011;26497;52.494;7.546;2023-08-30T05:00:10;139.95;;;97.90;;
40787;SDS011;26497;52.494;7.546;2023-08-30T05:02:38;147.57;;;97.47;;
40787;SDS011;26497;52.494;7.546;2023-08-30T05:05:05;144.68;;;96.30;;
40787;SDS011;26497;52.494;7.546;2023-08-30T05:07:35;128.95;;;100.28;;
40787;SDS011;26497;52.494;7.546;2023-08-30T05:10:02;148.52;;;97.60;;
40787;SDS011;26497;52.494;7.546;2023-08-30T05:12:30;142.90;;;95.00;;
40787;SDS011;26497;52.494;7.546;2023-08-30T05:14:57;133.13;;;90.53;;
40787;SDS011;26497;52.494;7.546;2023-08-30T05:17:24;133.77;;;93.55;;
40787;SDS011;26497;52.494;7.546;2023-08-30T05:19:53;155.18;;;100.30;;
40787;SDS011;26497;52.494;7.546;2023-08-30T05:22:20;158.35;;;106.18;;
40787;SDS011;26497;52.494;7.546;2023-08-30T05:24:49;148.50;;;108.22;;
40787;SDS011;26497;52.494;7.546;2023-08-30T05:27:16;157.57;;;116.13;;
40787;SDS011;26497;52.494;7.546;2023-08-30T05:29:43;182.38;;;119.53;;
40787;SDS011;26497;52.494;7.546;2023-08-30T05:32:10;187.32;;;119.78;;
40787;SDS011;26497;52.494;7.546;2023-08-30T05:34:37;175.05;;;117.22;;
40787;SDS011;26497;52.494;7.546;2023-08-30T05:37:04;185.60;;;117.90;;
40787;SDS011;26497;52.494;7.546;2023-08-30T05:39:31;166.45;;;117.20;;
40787;SDS011;26497;52.494;7.546;2023-08-30T05:41:59;187.23;;;117.15;;
40787;SDS011;26497;52.494;7.546;2023-08-30T05:44:26;179.27;;;113.22;;
40787;SDS011;26497;52.494;7.546;2023-08-30T05:46:53;156.30;;;113.03;;
40787;SDS011;26497;52.494;7.546;2023-08-30T05:49:20;161.50;;;112.00;;
40787;SDS011;26497;52.494;7.546;2023-08-30T05:51:47;177.85;;;113.15;;
40787;SDS011;26497;52.494;7.546;2023-08-30T05:54:14;158.25;;;111.38;;
40787;SDS011;26497;52.494;7.546;2023-08-30T05:56:41;141.68;;;105.88;;
40787;SDS011;26497;52.494;7.546;2023-08-30T05:59:09;148.35;;;109.55;;
40787;SDS011;26497;52.494;7.546;2023-08-30T06:01:36;141.65;;;106.40;;
40787;SDS011;26497;52.494;7.546;2023-08-30T06:04:03;141.27;;;109.55;;
40787;SDS011;26497;52.494;7.546;2023-08-30T06:06:30;131.13;;;103.30;;
40787;SDS011;26497;52.494;7.546;2023-08-30T06:08:57;134.30;;;107.72;;
40787;SDS011;26497;52.494;7.546;2023-08-30T06:11:25;131.50;;;104.65;;
40787;SDS011;26497;52.494;7.546;2023-08-30T06:13:52;122.28;;;104.45;;
40787;SDS011;26497;52.494;7.546;2023-08-30T06:16:21;133.75;;;105.30;;
40787;SDS011;26497;52.494;7.546;2023-08-30T06:18:48;125.95;;;103.03;;
40787;SDS011;26497;52.494;7.546;2023-08-30T06:21:15;118.03;;;103.97;;
40787;SDS011;26497;52.494;7.546;2023-08-30T06:23:42;120.00;;;102.25;;
40787;SDS011;26497;52.494;7.546;2023-08-30T06:26:09;118.13;;;105.15;;
40787;SDS011;26497;52.494;7.546;2023-08-30T06:28:36;114.15;;;101.70;;
40787;SDS011;26497;52.494;7.546;2023-08-30T06:31:03;112.18;;;100.43;;
40787;SDS011;26497;52.494;7.546;2023-08-30T06:33:31;110.63;;;99.45;;
40787;SDS011;26497;52.494;7.546;2023-08-30T06:35:58;104.30;;;93.03;;
40787;SDS011;26497;52.494;7.546;2023-08-30T06:38:25;102.57;;;93.05;;
40787;SDS011;26497;52.494;7.546;2023-08-30T06:40:52;97.13;;;88.70;;
40787;SDS011;26497;52.494;7.546;2023-08-30T06:43:19;96.65;;;88.53;;
40787;SDS011;26497;52.494;7.546;2023-08-30T06:45:46;122.20;;;113.18;;
40787;SDS011;26497;52.494;7.546;2023-08-30T06:48:13;135.63;;;125.90;;
40787;SDS011;26497;52.494;7.546;2023-08-30T06:50:41;149.75;;;139.35;;
40787;SDS011;26497;52.494;7.546;2023-08-30T06:53:08;166.52;;;156.48;;
40787;SDS011;26497;52.494;7.546;2023-08-30T06:55:35;121.75;;;113.95;;
40787;SDS011;26497;52.494;7.546;2023-08-30T06:58:03;114.07;;;106.65;;
40787;SDS011;26497;52.494;7.546;2023-08-30T07:00:31;105.78;;;99.03;;
40787;SDS011;26497;52.494;7.546;2023-08-30T07:02:58;94.57;;;88.57;;
40787;SDS011;26497;52.494;7.546;2023-08-30T07:05:25;62.22;;;58.10;;
40787;SDS011;26497;52.494;7.546;2023-08-30T07:07:53;47.90;;;44.50;;
40787;SDS011;26497;52.494;7.546;2023-08-30T07:10:20;47.00;;;43.28;;
40787;SDS011;26497;52.494;7.546;2023-08-30T07:12:47;45.85;;;42.53;;
40787;SDS011;26497;52.494;7.546;2023-08-30T07:15:14;47.17;;;44.05;;
40787;SDS011;26497;52.494;7.546;2023-08-30T07:17:42;50.90;;;47.22;;
40787;SDS011;26497;52.494;7.546;2023-08-30T07:20:10;52.97;;;49.20;;
40787;SDS011;26497;52.494;7.546;2023-08-30T07:22:37;66.35;;;61.88;;
40787;SDS011;26497;52.494;7.546;2023-08-30T07:25:06;1999.90;;;999.90;;
40787;SDS011;26497;52.494;7.546;2023-08-30T07:27:35;1999.90;;;999.90;;
40787;SDS011;26497;52.494;7.546;2023-08-30T07:30:02;1999.90;;;999.90;;
40787;SDS011;26497;52.494;7.546;2023-08-30T07:32:30;1999.90;;;999.90;;
40787;SDS011;26497;52.494;7.546;2023-08-30T07:34:57;1999.90;;;999.90;;
40787;SDS011;26497;52.494;7.546;2023-08-30T07:37:25;1999.90;;;999.90;;
40787;SDS011;26497;52.494;7.546;2023-08-30T07:39:52;1999.90;;;999.90;;
40787;SDS011;26497;52.494;7.546;2023-08-30T07:42:21;1999.90;;;999.90;;
40787;SDS011;26497;52.494;7.546;2023-08-30T07:44:48;1999.90;;;999.90;;
40787;SDS011;26497;52.494;7.546;2023-08-30T07:47:15;1999.90;;;999.90;;
40787;SDS011;26497;52.494;7.546;2023-08-30T07:49:42;1999.90;;;999.90;;
40787;SDS011;26497;52.494;7.546;2023-08-30T07:52:09;1999.90;;;999.90;;
40787;SDS011;26497;52.494;7.546;2023-08-30T07:54:38;1999.90;;;999.90;;
40787;SDS011;26497;52.494;7.546;2023-08-30T07:57:05;1999.90;;;999.90;;
40787;SDS011;26497;52.494;7.546;2023-08-30T07:59:34;1999.90;;;999.90;;
40787;SDS011;26497;52.494;7.546;2023-08-30T08:02:02;1999.90;;;999.90;;
40787;SDS011;26497;52.494;7.546;2023-08-30T08:04:31;1999.90;;;999.90;;
40787;SDS011;26497;52.494;7.546;2023-08-30T08:06:58;1999.90;;;999.90;;
40787;SDS011;26497;52.494;7.546;2023-08-30T08:09:25;1999.90;;;999.90;;
40787;SDS011;26497;52.494;7.546;2023-08-30T08:11:53;1999.90;;;999.90;;
40787;SDS011;26497;52.494;7.546;2023-08-30T08:14:21;1999.90;;;999.90;;
40787;SDS011;26497;52.494;7.546;2023-08-30T08:16:49;1999.90;;;999.90;;
40787;SDS011;26497;52.494;7.546;2023-08-30T08:19:17;1999.90;;;999.90;;
40787;SDS011;26497;52.494;7.546;2023-08-30T08:21:45;1999.90;;;999.90;;
40787;SDS011;26497;52.494;7.546;2023-08-30T08:24:12;1999.90;;;999.90;;
40787;SDS011;26497;52.494;7.546;2023-08-30T08:26:39;1999.90;;;999.90;;
40787;SDS011;26497;52.494;7.546;2023-08-30T08:29:06;1999.90;;;999.90;;
40787;SDS011;26497;52.494;7.546;2023-08-30T08:31:33;1999.90;;;999.90;;
40787;SDS011;26497;52.494;7.546;2023-08-30T08:34:08;1999.90;;;999.90;;
40787;SDS011;26497;52.494;7.546;2023-08-30T08:36:36;1999.90;;;999.90;;
40787;SDS011;26497;52.494;7.546;2023-08-30T08:39:04;1999.90;;;999.90;;
40787;SDS011;26497;52.494;7.546;2023-08-30T08:41:35;1999.90;;;999.90;;
40787;SDS011;26497;52.494;7.546;2023-08-30T08:44:06;1999.90;;;999.90;;
40787;SDS011;26497;52.494;7.546;2023-08-30T08:46:34;1999.90;;;999.90;;
40787;SDS011;26497;52.494;7.546;2023-08-30T08:49:05;1999.90;;;999.90;;
40787;SDS011;26497;52.494;7.546;2023-08-30T08:51:38;116.50;;;108.95;;
40787;SDS011;26497;52.494;7.546;2023-08-30T08:54:06;105.40;;;98.38;;
40787;SDS011;26497;52.494;7.546;2023-08-30T08:56:34;76.40;;;71.03;;
40787;SDS011;26497;52.494;7.546;2023-08-30T08:59:02;66.65;;;61.58;;
40787;SDS011;26497;52.494;7.546;2023-08-30T09:01:30;83.45;;;77.57;;
40787;SDS011;26497;52.494;7.546;2023-08-30T09:04:00;1999.90;;;999.90;;
40787;SDS011;26497;52.494;7.546;2023-08-30T09:06:31;1999.90;;;999.90;;
40787;SDS011;26497;52.494;7.546;2023-08-30T09:08:59;1999.90;;;999.90;;
40787;SDS011;26497;52.494;7.546;2023-08-30T09:11:28;1999.90;;;999.90;;
40787;SDS011;26497;52.494;7.546;2023-08-30T09:13:55;1999.90;;;999.90;;
40787;SDS011;26497;52.494;7.546;2023-08-30T09:16:22;1999.90;;;999.90;;
40787;SDS011;26497;52.494;7.546;2023-08-30T09:18:56;1999.90;;;999.90;;
40787;SDS011;26497;52.494;7.546;2023-08-30T09:21:25;1999.90;;;999.90;;
40787;SDS011;26497;52.494;7.546;2023-08-30T09:24:00;1999.90;;;999.90;;
40787;SDS011;26497;52.494;7.546;2023-08-30T09:26:28;1999.90;;;999.90;;
40787;SDS011;26497;52.494;7.546;2023-08-30T09:29:00;1999.90;;;999.90;;
40787;SDS011;26497;52.494;7.546;2023-08-30T09:31:32;1999.90;;;999.90;;
40787;SDS011;26497;52.494;7.546;2023-08-30T09:34:01;1999.90;;;999.90;;
40787;SDS011;26497;52.494;7.546;2023-08-30T09:36:32;1999.90;;;999.90;;
40787;SDS011;26497;52.494;7.546;2023-08-30T09:39:04;1999.90;;;999.90;;
40787;SDS011;26497;52.494;7.546;2023-08-30T09:41:33;1999.90;;;999.90;;
40787;SDS011;26497;52.494;7.546;2023-08-30T09:44:05;1999.90;;;999.90;;
40787;SDS011;26497;52.494;7.546;2023-08-30T09:46:39;1999.90;;;999.90;;
40787;SDS011;26497;52.494;7.546;2023-08-30T09:49:08;1999.90;;;999.90;;
40787;SDS011;26497;52.494;7.546;2023-08-30T09:51:35;1999.90;;;999.90;;
40787;SDS011;26497;52.494;7.546;2023-08-30T09:54:14;1999.90;;;999.90;;
40787;SDS011;26497;52.494;7.546;2023-08-30T09:56:42;1999.90;;;999.90;;
40787;SDS011;26497;52.494;7.546;2023-08-30T09:59:10;1999.90;;;999.90;;
40787;SDS011;26497;52.494;7.546;2023-08-30T10:01:39;1999.90;;;999.90;;
40787;SDS011;26497;52.494;7.546;2023-08-30T10:04:08;1999.90;;;999.90;;
40787;SDS011;26497;52.494;7.546;2023-08-30T10:06:37;1999.90;;;999.90;;
40787;SDS011;26497;52.494;7.546;2023-08-30T10:09:05;1999.90;;;999.90;;
40787;SDS011;26497;52.494;7.546;2023-08-30T10:11:35;1999.90;;;999.90;;
40787;SDS011;26497;52.494;7.546;2023-08-30T10:14:03;1999.90;;;999.90;;
40787;SDS011;26497;52.494;7.546;2023-08-30T10:16:32;1999.90;;;999.90;;
40787;SDS011;26497;52.494;7.546;2023-08-30T10:19:07;1999.90;;;999.90;;
40787;SDS011;26497;52.494;7.546;2023-08-30T10:21:40;1999.90;;;999.90;;
40787;SDS011;26497;52.494;7.546;2023-08-30T10:24:11;1999.90;;;999.90;;
40787;SDS011;26497;52.494;7.546;2023-08-30T10:26:42;1999.90;;;999.90;;
40787;SDS011;26497;52.494;7.546;2023-08-30T10:29:12;1999.90;;;999.90;;
40787;SDS011;26497;52.494;7.546;2023-08-30T10:31:40;117.15;;;109.45;;
40787;SDS011;26497;52.494;7.546;2023-08-30T10:34:12;95.80;;;89.20;;
40787;SDS011;26497;52.494;7.546;2023-08-30T10:36:42;83.38;;;77.40;;
40787;SDS011;26497;52.494;7.546;2023-08-30T10:39:14;72.18;;;66.88;;
40787;SDS011;26497;52.494;7.546;2023-08-30T10:41:54;69.28;;;63.65;;
40787;SDS011;26497;52.494;7.546;2023-08-30T10:44:22;69.97;;;64.47;;
40787;SDS011;26497;52.494;7.546;2023-08-30T10:46:51;70.57;;;65.43;;
40787;SDS011;26497;52.494;7.546;2023-08-30T10:49:20;78.72;;;72.50;;
40787;SDS011;26497;52.494;7.546;2023-08-30T10:51:54;80.15;;;73.95;;
40787;SDS011;26497;52.494;7.546;2023-08-30T10:54:25;85.25;;;78.88;;
40787;SDS011;26497;52.494;7.546;2023-08-30T10:57:02;93.68;;;86.70;;
40787;SDS011;26497;52.494;7.546;2023-08-30T10:59:29;103.82;;;96.35;;
40787;SDS011;26497;52.494;7.546;2023-08-30T11:01:56;107.70;;;99.90;;
40787;SDS011;26497;52.494;7.546;2023-08-30T11:04:28;110.13;;;102.38;;
40787;SDS011;26497;52.494;7.546;2023-08-30T11:06:55;114.30;;;106.10;;
40787;SDS011;26497;52.494;7.546;2023-08-30T11:09:24;126.78;;;117.63;;
40787;SDS011;26497;52.494;7.546;2023-08-30T11:11:51;151.15;;;140.48;;
40787;SDS011;26497;52.494;7.546;2023-08-30T11:14:18;166.77;;;155.27;;
40787;SDS011;26497;52.494;7.546;2023-08-30T11:16:45;172.82;;;161.52;;
40787;SDS011;26497;52.494;7.546;2023-08-30T11:19:12;197.20;;;184.40;;
40787;SDS011;26497;52.494;7.546;2023-08-30T11:21:40;200.68;;;187.35;;
40787;SDS011;26497;52.494;7.546;2023-08-30T11:24:10;215.20;;;201.18;;
40787;SDS011;26497;52.494;7.546;2023-08-30T11:26:39;233.93;;;218.52;;
40787;SDS011;26497;52.494;7.546;2023-08-30T11:29:06;222.80;;;208.45;;
40787;SDS011;26497;52.494;7.546;2023-08-30T11:31:35;224.50;;;208.95;;
40787;SDS011;26497;52.494;7.546;2023-08-30T11:34:01;211.65;;;197.02;;
40787;SDS011;26497;52.494;7.546;2023-08-30T11:36:29;201.98;;;187.68;;
40787;SDS011;26497;52.494;7.546;2023-08-30T11:38:57;187.60;;;174.18;;
40787;SDS011;26497;52.494;7.546;2023-08-30T11:41:25;171.48;;;158.63;;
40787;SDS011;26497;52.494;7.546;2023-08-30T11:43:54;164.77;;;152.57;;
40787;SDS011;26497;52.494;7.546;2023-08-30T11:46:21;155.48;;;143.65;;
40787;SDS011;26497;52.494;7.546;2023-08-30T11:48:48;156.82;;;145.02;;
40787;SDS011;26497;52.494;7.546;2023-08-30T11:51:18;155.07;;;143.63;;
40787;SDS011;26497;52.494;7.546;2023-08-30T11:53:45;158.55;;;146.48;;
40787;SDS011;26497;52.494;7.546;2023-08-30T11:56:13;152.82;;;141.23;;
40787;SDS011;26497;52.494;7.546;2023-08-30T11:58:41;152.55;;;141.45;;
40787;SDS011;26497;52.494;7.546;2023-08-30T12:01:10;147.07;;;136.38;;
40787;SDS011;26497;52.494;7.546;2023-08-30T12:03:39;151.60;;;140.52;;
40787;SDS011;26497;52.494;7.546;2023-08-30T12:06:09;149.88;;;137.93;;
40787;SDS011;26497;52.494;7.546;2023-08-30T12:08:36;137.13;;;126.90;;
40787;SDS011;26497;52.494;7.546;2023-08-30T12:11:04;129.85;;;120.90;;
40787;SDS011;26497;52.494;7.546;2023-08-30T12:13:32;116.50;;;108.22;;
40787;SDS011;26497;52.494;7.546;2023-08-30T12:15:59;111.05;;;103.80;;
40787;SDS011;26497;52.494;7.546;2023-08-30T12:18:31;106.03;;;99.38;;
40787;SDS011;26497;52.494;7.546;2023-08-30T12:20:59;101.88;;;95.32;;
40787;SDS011;26497;52.494;7.546;2023-08-30T12:23:28;98.63;;;92.28;;
40787;SDS011;26497;52.494;7.546;2023-08-30T12:25:57;100.38;;;94.30;;
40787;SDS011;26497;52.494;7.546;2023-08-30T12:28:26;93.85;;;88.25;;
40787;SDS011;26497;52.494;7.546;2023-08-30T12:30:54;90.07;;;84.60;;
40787;SDS011;26497;52.494;7.546;2023-08-30T12:33:21;89.60;;;83.95;;
40787;SDS011;26497;52.494;7.546;2023-08-30T12:35:51;95.60;;;89.72;;
40787;SDS011;26497;52.494;7.546;2023-08-30T12:38:18;100.15;;;94.10;;
40787;SDS011;26497;52.494;7.546;2023-08-30T12:40:46;105.38;;;98.43;;
40787;SDS011;26497;52.494;7.546;2023-08-30T12:43:23;108.97;;;102.28;;
40787;SDS011;26497;52.494;7.546;2023-08-30T12:45:50;109.30;;;102.05;;
40787;SDS011;26497;52.494;7.546;2023-08-30T12:48:18;105.88;;;99.07;;
40787;SDS011;26497;52.494;7.546;2023-08-30T12:50:45;98.97;;;92.82;;
40787;SDS011;26497;52.494;7.546;2023-08-30T12:53:15;97.15;;;91.05;;
40787;SDS011;26497;52.494;7.546;2023-08-30T12:55:42;94.85;;;88.75;;
40787;SDS011;26497;52.494;7.546;2023-08-30T12:58:09;93.32;;;87.25;;
40787;SDS011;26497;52.494;7.546;2023-08-30T13:00:39;93.35;;;87.30;;
40787;SDS011;26497;52.494;7.546;2023-08-30T13:03:06;91.05;;;85.30;;
40787;SDS011;26497;52.494;7.546;2023-08-30T13:05:33;91.85;;;85.40;;
40787;SDS011;26497;52.494;7.546;2023-08-30T13:08:01;98.95;;;91.95;;
40787;SDS011;26497;52.494;7.546;2023-08-30T13:10:30;95.78;;;89.43;;
40787;SDS011;26497;52.494;7.546;2023-08-30T13:12:57;97.45;;;90.97;;
40787;SDS011;26497;52.494;7.546;2023-08-30T13:15:24;95.43;;;89.05;;
40787;SDS011;26497;52.494;7.546;2023-08-30T13:17:51;96.80;;;90.53;;
40787;SDS011;26497;52.494;7.546;2023-08-30T13:20:18;93.65;;;87.88;;
40787;SDS011;26497;52.494;7.546;2023-08-30T13:22:45;92.78;;;86.75;;
40787;SDS011;26497;52.494;7.546;2023-08-30T13:25:12;93.90;;;88.13;;
40787;SDS011;26497;52.494;7.546;2023-08-30T13:27:42;93.88;;;87.95;;
40787;SDS011;26497;52.494;7.546;2023-08-30T13:30:09;111.35;;;104.78;;
40787;SDS011;26497;52.494;7.546;2023-08-30T13:32:37;138.25;;;130.35;;
40787;SDS011;26497;52.494;7.546;2023-08-30T13:35:04;118.50;;;111.45;;
40787;SDS011;26497;52.494;7.546;2023-08-30T13:37:32;108.13;;;101.32;;
40787;SDS011;26497;52.494;7.546;2023-08-30T13:39:59;110.30;;;103.85;;
40787;SDS011;26497;52.494;7.546;2023-08-30T13:42:26;114.32;;;107.57;;
40787;SDS011;26497;52.494;7.546;2023-08-30T13:44:54;112.22;;;105.53;;
40787;SDS011;26497;52.494;7.546;2023-08-30T13:47:21;110.38;;;103.95;;
40787;SDS011;26497;52.494;7.546;2023-08-30T13:49:48;110.07;;;103.57;;
40787;SDS011;26497;52.494;7.546;2023-08-30T13:52:15;106.70;;;100.70;;
40787;SDS011;26497;52.494;7.546;2023-08-30T13:54:43;111.40;;;104.57;;
40787;SDS011;26497;52.494;7.546;2023-08-30T13:57:09;117.10;;;110.13;;
40787;SDS011;26497;52.494;7.546;2023-08-30T13:59:36;124.22;;;116.88;;
40787;SDS011;26497;52.494;7.546;2023-08-30T14:02:05;126.28;;;118.68;;
40787;SDS011;26497;52.494;7.546;2023-08-30T14:04:32;130.30;;;122.80;;
40787;SDS011;26497;52.494;7.546;2023-08-30T14:07:02;123.97;;;116.70;;
40787;SDS011;26497;52.494;7.546;2023-08-30T14:09:29;128.23;;;120.90;;
40787;SDS011;26497;52.494;7.546;2023-08-30T14:11:56;143.73;;;134.93;;